Time,TemperatureF,DewpointF,PressureIn,WindDirection,WindDirectionDegrees,WindSpeedMPH,WindSpeedGustMPH,Humidity,HourlyPrecipIn,Conditions,Clouds,dailyrainin,SoftwareType,DateUTC
2013-02-18 00:00:00,50.0,47.2,29.89,NW,315,1.2,2.5,90,0.00,,,0.00,manual,2013-02-17 23:00:00,
2013-02-18 00:10:00,50.0,47.2,29.89,NW,315,2.5,4.3,90,0.00,,,0.00,manual,2013-02-17 23:10:00,
2013-02-18 00:20:00,49.6,46.8,29.88,NW,315,3.1,6.2,90,0.00,,,0.00,manual,2013-02-17 23:20:00,
2013-02-18 00:30:00,49.5,46.6,29.88,NW,315,3.7,6.2,90,0.00,,,0.00,manual,2013-02-17 23:30:00,
2013-02-18 00:40:00,49.5,46.6,29.88,NW,315,2.5,4.3,90,0.00,,,0.00,manual,2013-02-17 23:40:00,
2013-02-18 00:50:00,49.5,46.9,29.88,NW,315,1.9,3.7,91,0.00,,,0.00,manual,2013-02-17 23:50:00,
2013-02-18 01:00:00,49.5,46.9,29.88,NW,315,1.9,4.3,91,0.00,,,0.00,manual,2013-02-18 00:00:00,
2013-02-18 01:10:00,49.5,47.2,29.88,NW,315,1.2,3.1,92,0.00,,,0.00,manual,2013-02-18 00:10:00,
2013-02-18 01:20:00,49.5,47.2,29.88,NW,315,1.2,3.1,92,0.00,,,0.00,manual,2013-02-18 00:20:00,
2013-02-18 01:30:00,49.5,47.5,29.88,NW,315,0.6,3.1,93,0.00,,,0.00,manual,2013-02-18 00:30:00,
2013-02-18 01:40:00,49.3,47.3,29.87,North,0,1.2,3.1,93,0.00,,,0.00,manual,2013-02-18 00:40:00,
2013-02-18 01:50:00,49.5,47.5,29.87,NW,315,1.9,4.3,93,0.00,,,0.00,manual,2013-02-18 00:50:00,
2013-02-18 02:00:00,49.3,47.3,29.87,WNW,292,1.9,3.7,93,0.00,,,0.00,manual,2013-02-18 01:00:00,
2013-02-18 02:10:00,49.3,47.6,29.87,NW,315,1.9,4.3,94,0.00,,,0.00,manual,2013-02-18 01:10:00,
2013-02-18 02:20:00,48.9,47.2,29.87,NW,315,2.5,4.3,94,0.00,,,0.00,manual,2013-02-18 01:20:00,
2013-02-18 02:30:00,48.9,47.2,29.87,NW,315,2.5,5.6,94,0.00,,,0.00,manual,2013-02-18 01:30:00,
2013-02-18 02:40:00,48.9,47.2,29.87,NW,315,2.5,5.6,94,0.00,,,0.00,manual,2013-02-18 01:40:00,
2013-02-18 02:50:00,49.1,47.7,29.86,West,270,1.2,3.1,95,0.00,,,0.00,manual,2013-02-18 01:50:00,
2013-02-18 03:00:00,49.1,47.4,29.86,NW,315,0.6,2.5,94,0.00,,,0.00,manual,2013-02-18 02:00:00,
2013-02-18 03:10:00,49.3,47.6,29.86,West,270,0.0,2.5,94,0.00,,,0.00,manual,2013-02-18 02:10:00,
2013-02-18 03:20:00,49.5,47.8,29.86,SW,225,1.2,3.1,94,0.00,,,0.00,manual,2013-02-18 02:20:00,
2013-02-18 03:30:00,49.5,47.8,29.85,West,270,0.6,2.5,94,0.00,,,0.00,manual,2013-02-18 02:30:00,
2013-02-18 03:40:00,49.5,47.8,29.85,NW,315,1.2,3.1,94,0.00,,,0.00,manual,2013-02-18 02:40:00,
2013-02-18 03:50:00,49.5,47.5,29.85,West,270,1.9,3.1,93,0.00,,,0.00,manual,2013-02-18 02:50:00,
2013-02-18 04:00:00,49.3,47.6,29.84,West,270,1.9,4.3,94,0.00,,,0.00,manual,2013-02-18 03:00:00,
2013-02-18 04:10:00,49.3,47.6,29.84,West,270,3.1,3.7,94,0.00,,,0.00,manual,2013-02-18 03:10:00,
2013-02-18 04:20:00,49.3,47.6,29.84,NW,315,2.5,4.3,94,0.00,,,0.00,manual,2013-02-18 03:20:00,
2013-02-18 04:30:00,49.1,47.4,29.84,NW,315,2.5,3.7,94,0.00,,,0.00,manual,2013-02-18 03:30:00,
2013-02-18 04:40:00,49.3,47.6,29.84,NW,315,1.9,3.7,94,0.00,,,0.00,manual,2013-02-18 03:40:00,
2013-02-18 04:50:00,49.3,47.6,29.85,NW,315,2.5,5.6,94,0.00,,,0.00,manual,2013-02-18 03:50:00,
2013-02-18 05:00:00,49.3,47.6,29.85,NW,315,2.5,4.3,94,0.00,,,0.00,manual,2013-02-18 04:00:00,
2013-02-18 05:10:00,49.3,47.6,29.85,NW,315,1.2,3.1,94,0.00,,,0.00,manual,2013-02-18 04:10:00,
2013-02-18 05:20:00,49.5,47.8,29.85,NW,315,1.2,3.1,94,0.00,,,0.00,manual,2013-02-18 04:20:00,
2013-02-18 05:30:00,49.6,48.0,29.85,NW,315,1.2,3.1,94,0.00,,,0.00,manual,2013-02-18 04:30:00,
2013-02-18 05:40:00,49.8,47.9,29.85,West,270,1.2,3.1,93,0.00,,,0.00,manual,2013-02-18 04:40:00,
2013-02-18 05:50:00,49.8,47.9,29.85,West,270,1.2,3.1,93,0.00,,,0.00,manual,2013-02-18 04:50:00,
2013-02-18 06:00:00,49.8,47.9,29.85,West,270,1.2,3.7,93,0.00,,,0.00,manual,2013-02-18 05:00:00,
2013-02-18 06:10:00,49.8,47.9,29.85,West,270,2.5,5.6,93,0.00,,,0.00,manual,2013-02-18 05:10:00,
2013-02-18 06:20:00,49.6,47.7,29.86,NW,315,3.7,6.8,93,0.00,,,0.00,manual,2013-02-18 05:20:00,
2013-02-18 06:30:00,49.5,47.8,29.86,NW,315,5.0,7.4,94,0.00,,,0.00,manual,2013-02-18 05:30:00,
2013-02-18 06:40:00,49.5,47.8,29.86,NW,315,5.0,6.8,94,0.00,,,0.00,manual,2013-02-18 05:40:00,
2013-02-18 06:50:00,49.5,47.8,29.87,NW,315,5.0,7.4,94,0.00,,,0.00,manual,2013-02-18 05:50:00,
2013-02-18 07:00:00,49.5,47.8,29.86,NW,315,3.7,6.2,94,0.00,,,0.00,manual,2013-02-18 06:00:00,
2013-02-18 07:10:00,49.6,48.0,29.87,NW,315,3.7,5.6,94,0.00,,,0.00,manual,2013-02-18 06:10:00,
2013-02-18 07:20:00,49.6,48.3,29.87,NW,315,3.1,5.6,95,0.00,,,0.00,manual,2013-02-18 06:20:00,
2013-02-18 07:30:00,49.6,48.0,29.87,NW,315,1.9,3.7,94,0.00,,,0.00,manual,2013-02-18 06:30:00,
2013-02-18 07:40:00,49.8,48.1,29.87,NW,315,2.5,4.3,94,0.00,,,0.00,manual,2013-02-18 06:40:00,
2013-02-18 07:50:00,49.8,48.1,29.87,NW,315,3.1,5.6,94,0.00,,,0.00,manual,2013-02-18 06:50:00,
2013-02-18 08:00:00,49.8,48.1,29.88,NW,315,3.7,6.2,94,0.00,,,0.00,manual,2013-02-18 07:00:00,
2013-02-18 08:10:00,50.0,48.3,29.88,NW,315,3.7,5.6,94,0.00,,,0.00,manual,2013-02-18 07:10:00,
2013-02-18 08:20:00,50.0,48.3,29.88,NW,315,3.7,7.4,94,0.00,,,0.00,manual,2013-02-18 07:20:00,
2013-02-18 08:30:00,50.0,48.3,29.88,NW,315,3.7,6.2,94,0.00,,,0.00,manual,2013-02-18 07:30:00,
2013-02-18 08:40:00,50.2,48.2,29.89,NW,315,3.7,6.8,93,0.00,,,0.00,manual,2013-02-18 07:40:00,
2013-02-18 08:50:00,50.4,48.4,29.89,NW,315,4.3,7.4,93,0.00,,,0.00,manual,2013-02-18 07:50:00,
2013-02-18 09:00:00,50.5,48.3,29.90,NW,315,3.1,5.6,92,0.00,,,0.00,manual,2013-02-18 08:00:00,
2013-02-18 09:10:00,50.7,48.5,29.90,NW,315,3.1,6.8,92,0.00,,,0.00,manual,2013-02-18 08:10:00,
2013-02-18 09:20:00,50.7,48.2,29.90,NW,315,3.7,9.9,91,0.00,,,0.00,manual,2013-02-18 08:20:00,
2013-02-18 09:30:00,50.9,48.0,29.91,North,0,3.7,8.1,90,0.00,,,0.00,manual,2013-02-18 08:30:00,
2013-02-18 09:40:00,50.9,47.7,29.91,North,0,4.3,7.4,89,0.00,,,0.00,manual,2013-02-18 08:40:00,
2013-02-18 09:50:00,51.1,47.6,29.91,North,0,5.0,11.2,88,0.00,,,0.00,manual,2013-02-18 08:50:00,
2013-02-18 10:00:00,51.3,47.5,29.91,North,0,5.0,11.8,87,0.00,,,0.00,manual,2013-02-18 09:00:00,
2013-02-18 10:10:00,51.1,47.0,29.91,NE,45,6.2,10.5,86,0.00,,,0.00,manual,2013-02-18 09:10:00,
2013-02-18 10:20:00,51.1,47.0,29.91,NE,45,4.3,9.9,86,0.00,,,0.00,manual,2013-02-18 09:20:00,
2013-02-18 10:30:00,51.1,47.0,29.91,NE,45,6.2,11.2,86,0.00,,,0.00,manual,2013-02-18 09:30:00,
2013-02-18 10:40:00,51.1,47.0,29.91,NE,45,5.6,10.5,86,0.00,,,0.00,manual,2013-02-18 09:40:00,
2013-02-18 10:50:00,51.1,47.0,29.92,NE,45,3.1,6.8,86,0.00,,,0.00,manual,2013-02-18 09:50:00,
2013-02-18 11:00:00,51.1,47.0,29.92,North,0,3.1,7.4,86,0.00,,,0.00,manual,2013-02-18 10:00:00,
2013-02-18 11:10:00,50.9,46.8,29.92,NE,45,3.7,6.2,86,0.00,,,0.00,manual,2013-02-18 10:10:00,
2013-02-18 11:20:00,51.1,47.0,29.93,North,0,2.5,6.8,86,0.00,,,0.00,manual,2013-02-18 10:20:00,
2013-02-18 11:30:00,51.3,47.2,29.93,NE,45,4.3,8.1,86,0.00,,,0.00,manual,2013-02-18 10:30:00,
2013-02-18 11:40:00,51.4,47.3,29.93,NE,45,5.6,10.5,86,0.00,,,0.00,manual,2013-02-18 10:40:00,
2013-02-18 11:50:00,51.6,47.5,29.93,NE,45,3.7,8.1,86,0.00,,,0.00,manual,2013-02-18 10:50:00,
2013-02-18 12:00:00,51.8,47.4,29.93,North,0,3.7,8.1,85,0.00,,,0.00,manual,2013-02-18 11:00:00,
2013-02-18 12:10:00,51.8,47.4,29.93,North,0,4.3,7.4,85,0.00,,,0.00,manual,2013-02-18 11:10:00,
2013-02-18 12:20:00,51.6,47.2,29.93,NW,315,4.3,7.4,85,0.00,,,0.00,manual,2013-02-18 11:20:00,
2013-02-18 12:30:00,51.8,47.4,29.93,NE,45,5.6,11.8,85,0.00,,,0.00,manual,2013-02-18 11:30:00,
2013-02-18 12:40:00,51.6,47.5,29.93,East,90,3.7,8.1,86,0.00,,,0.00,manual,2013-02-18 11:40:00,
2013-02-18 12:50:00,51.6,47.8,29.93,NE,45,4.3,8.1,87,0.00,,,0.00,manual,2013-02-18 11:50:00,
2013-02-18 13:00:00,51.4,48.0,29.93,NE,45,3.1,6.2,88,0.00,,,0.00,manual,2013-02-18 12:00:00,
2013-02-18 13:10:00,51.6,48.4,29.93,East,90,1.9,3.7,89,0.00,,,0.00,manual,2013-02-18 12:10:00,
2013-02-18 13:20:00,52.2,48.7,29.93,NE,45,1.2,6.2,88,0.00,,,0.00,manual,2013-02-18 12:20:00,
2013-02-18 13:30:00,52.3,48.2,29.93,NW,315,0.6,3.1,86,0.00,,,0.00,manual,2013-02-18 12:30:00,
2013-02-18 13:40:00,52.3,48.2,29.93,North,0,0.6,3.7,86,0.00,,,0.00,manual,2013-02-18 12:40:00,
2013-02-18 13:50:00,52.3,47.9,29.92,North,0,0.6,3.7,85,0.00,,,0.00,manual,2013-02-18 12:50:00,
2013-02-18 14:00:00,52.5,48.4,29.92,NE,45,0.6,3.7,86,0.00,,,0.00,manual,2013-02-18 13:00:00,
2013-02-18 14:10:00,52.9,48.4,29.91,East,90,1.2,3.1,85,0.00,,,0.00,manual,2013-02-18 13:10:00,
2013-02-18 14:20:00,52.9,48.1,29.91,NW,315,1.9,4.3,84,0.00,,,0.00,manual,2013-02-18 13:20:00,
2013-02-18 14:30:00,53.1,48.3,29.91,North,0,1.9,5.6,84,0.00,,,0.00,manual,2013-02-18 13:30:00,
2013-02-18 14:40:00,53.2,48.5,29.91,NW,315,1.9,5.6,84,0.00,,,0.00,manual,2013-02-18 13:40:00,
2013-02-18 14:50:00,53.4,48.3,29.91,North,0,3.1,6.2,83,0.00,,,0.00,manual,2013-02-18 13:50:00,
2013-02-18 15:00:00,53.2,47.8,29.91,NE,45,5.6,10.5,82,0.00,,,0.00,manual,2013-02-18 14:00:00,
2013-02-18 15:10:00,53.1,48.3,29.92,NE,45,6.2,11.2,84,0.00,,,0.00,manual,2013-02-18 14:10:00,
2013-02-18 15:30:00,52.9,48.8,29.92,NE,45,3.7,10.5,86,0.00,,,0.00,manual,2013-02-18 14:30:00,
2013-02-18 15:40:00,52.3,48.5,29.92,NE,45,5.0,11.2,87,0.00,,,0.00,manual,2013-02-18 14:40:00,
2013-02-18 16:00:00,51.8,48.9,29.93,East,90,2.5,5.6,90,0.00,,,0.00,manual,2013-02-18 15:00:00,
2013-02-18 16:10:00,51.6,49.3,29.93,NE,45,3.7,6.2,92,0.00,,,0.00,manual,2013-02-18 15:10:00,
2013-02-18 16:20:00,51.4,49.2,29.93,NE,45,1.2,5.6,92,0.00,,,0.01,manual,2013-02-18 15:20:00,
2013-02-18 16:30:00,51.4,49.5,29.93,East,90,1.2,3.7,93,0.01,,,0.01,manual,2013-02-18 15:30:00,
2013-02-18 16:40:00,51.1,49.1,29.93,NE,45,1.9,3.7,93,0.01,,,0.01,manual,2013-02-18 15:40:00,
2013-02-18 16:50:00,50.9,49.2,29.93,NE,45,2.5,6.2,94,0.01,,,0.01,manual,2013-02-18 15:50:00,
2013-02-18 17:00:00,50.7,49.0,29.93,NE,45,3.7,6.8,94,0.01,,,0.01,manual,2013-02-18 16:00:00,
2013-02-18 17:10:00,50.5,48.9,29.93,NNE,22,3.1,5.6,94,0.01,,,0.01,manual,2013-02-18 16:10:00,
2013-02-18 17:20:00,50.4,48.7,29.93,NE,45,0.6,3.7,94,0.00,,,0.02,manual,2013-02-18 16:20:00,
2013-02-18 17:30:00,50.4,48.7,29.93,North,0,0.0,2.5,94,0.01,,,0.02,manual,2013-02-18 16:30:00,
2013-02-18 17:40:00,50.5,48.6,29.93,North,0,0.6,3.7,93,0.01,,,0.02,manual,2013-02-18 16:40:00,
2013-02-18 17:50:00,50.4,48.4,29.93,North,0,0.6,3.7,93,0.01,,,0.02,manual,2013-02-18 16:50:00,
2013-02-18 18:10:00,50.4,48.4,29.94,NW,315,1.9,6.2,93,0.01,,,0.02,manual,2013-02-18 17:10:00,
2013-02-18 18:20:00,50.0,48.3,29.94,NW,315,3.7,5.6,94,0.00,,,0.02,manual,2013-02-18 17:20:00,
2013-02-18 18:30:00,49.8,48.1,29.94,NW,315,1.9,4.3,94,0.00,,,0.02,manual,2013-02-18 17:30:00,
2013-02-18 18:40:00,49.8,48.1,29.94,NW,315,1.2,3.7,94,0.00,,,0.02,manual,2013-02-18 17:40:00,
2013-02-18 18:50:00,49.8,48.1,29.95,NW,315,3.1,6.2,94,0.00,,,0.02,manual,2013-02-18 17:50:00,
2013-02-18 19:00:00,49.6,48.0,29.95,NW,315,2.5,6.2,94,0.00,,,0.02,manual,2013-02-18 18:00:00,
2013-02-18 19:20:00,49.8,48.1,29.96,NW,315,1.9,3.7,94,0.00,,,0.02,manual,2013-02-18 18:20:00,
2013-02-18 19:30:00,49.8,48.4,29.96,West,270,1.9,3.7,95,0.00,,,0.02,manual,2013-02-18 18:30:00,
2013-02-18 19:40:00,49.8,48.4,29.96,West,270,0.6,2.5,95,0.00,,,0.02,manual,2013-02-18 18:40:00,
2013-02-18 19:50:00,49.8,48.4,29.96,West,270,0.6,3.1,95,0.00,,,0.02,manual,2013-02-18 18:50:00,
2013-02-18 20:00:00,49.8,48.4,29.97,SW,225,0.0,2.5,95,0.00,,,0.02,manual,2013-02-18 19:00:00,
2013-02-18 20:10:00,49.8,48.4,29.97,West,270,0.0,2.5,95,0.00,,,0.02,manual,2013-02-18 19:10:00,
2013-02-18 20:20:00,49.6,48.5,29.97,West,270,1.2,3.7,96,0.00,,,0.02,manual,2013-02-18 19:20:00,
2013-02-18 20:30:00,49.6,48.5,29.97,NW,315,1.9,3.7,96,0.00,,,0.02,manual,2013-02-18 19:30:00,
2013-02-18 20:40:00,49.3,48.2,29.97,NW,315,3.1,4.3,96,0.00,,,0.02,manual,2013-02-18 19:40:00,
2013-02-18 20:50:00,49.1,48.0,29.97,NW,315,3.1,5.6,96,0.00,,,0.02,manual,2013-02-18 19:50:00,
2013-02-18 21:00:00,49.1,48.0,29.98,NW,315,3.1,5.6,96,0.00,,,0.02,manual,2013-02-18 20:00:00,
2013-02-18 21:10:00,49.1,48.0,29.98,WNW,292,2.5,5.6,96,0.00,,,0.02,manual,2013-02-18 20:10:00,
2013-02-18 21:20:00,49.1,48.0,29.98,West,270,0.6,2.5,96,0.00,,,0.02,manual,2013-02-18 20:20:00,
2013-02-18 21:30:00,49.1,48.0,29.98,NW,315,0.6,1.9,96,0.00,,,0.02,manual,2013-02-18 20:30:00,
2013-02-18 21:40:00,49.3,48.2,29.98,North,0,0.6,2.5,96,0.00,,,0.02,manual,2013-02-18 20:40:00,
2013-02-18 21:50:00,49.1,48.0,29.99,SW,225,1.9,3.7,96,0.00,,,0.02,manual,2013-02-18 20:50:00,
2013-02-18 22:00:00,49.3,48.2,29.99,East,90,0.0,2.5,96,0.00,,,0.02,manual,2013-02-18 21:00:00,
2013-02-18 22:10:00,49.5,48.6,30.00,East,90,0.0,2.5,97,0.00,,,0.04,manual,2013-02-18 21:10:00,
2013-02-18 22:20:00,49.3,48.5,30.00,West,270,0.6,2.5,97,0.01,,,0.04,manual,2013-02-18 21:20:00,
2013-02-18 22:30:00,49.1,48.3,30.00,SW,225,1.2,3.1,97,0.01,,,0.05,manual,2013-02-18 21:30:00,
2013-02-18 22:40:00,49.1,48.3,29.99,NW,315,2.5,5.6,97,0.02,,,0.05,manual,2013-02-18 21:40:00,
2013-02-18 22:50:00,48.6,48.0,29.99,NW,315,2.5,4.3,98,0.02,,,0.05,manual,2013-02-18 21:50:00,
2013-02-18 23:00:00,48.6,48.0,30.00,NW,315,1.2,3.1,98,0.02,,,0.05,manual,2013-02-18 22:00:00,
2013-02-18 23:10:00,48.6,48.3,29.99,NW,315,0.6,3.1,99,0.01,,,0.05,manual,2013-02-18 22:10:00,
2013-02-18 23:20:00,48.6,48.0,29.99,SW,225,1.2,3.7,98,0.01,,,0.05,manual,2013-02-18 22:20:00,
2013-02-18 23:30:00,48.4,47.8,29.99,SW,225,0.6,3.1,98,0.00,,,0.05,manual,2013-02-18 22:30:00,
2013-02-18 23:40:00,48.2,47.7,29.99,SW,225,1.2,2.5,98,0.00,,,0.05,manual,2013-02-18 22:40:00,
2013-02-18 23:50:00,48.0,47.5,29.99,West,270,0.6,3.1,98,0.00,,,0.05,manual,2013-02-18 22:50:00,